sensor_id;sensor_type;location;lat;lon;timestamp;P1;durP1;ratioP1;P2;durP2;ratioP2
24325;SDS011;12448;45.532;5.290;2023-07-31T00:01:55;5.05;;;1.90;;
24325;SDS011;12448;45.532;5.290;2023-07-31T00:04:21;7.97;;;1.95;;
24325;SDS011;12448;45.532;5.290;2023-07-31T00:06:50;4.15;;;1.80;;
24325;SDS011;12448;45.532;5.290;2023-07-31T00:09:21;7.57;;;2.03;;
24325;SDS011;12448;45.532;5.290;2023-07-31T00:11:49;6.85;;;1.73;;
24325;SDS011;12448;45.532;5.290;2023-07-31T00:14:15;6.88;;;1.63;;
24325;SDS011;12448;45.532;5.290;2023-07-31T00:16:41;6.68;;;2.00;;
24325;SDS011;12448;45.532;5.290;2023-07-31T00:19:10;4.70;;;1.90;;
24325;SDS011;12448;45.532;5.290;2023-07-31T00:21:35;6.15;;;1.90;;
24325;SDS011;12448;45.532;5.290;2023-07-31T00:24:01;7.30;;;2.13;;
24325;SDS011;12448;45.532;5.290;2023-07-31T00:26:29;5.45;;;1.80;;
24325;SDS011;12448;45.532;5.290;2023-07-31T00:29:00;6.68;;;1.73;;
24325;SDS011;12448;45.532;5.290;2023-07-31T00:31:26;6.50;;;2.17;;
24325;SDS011;12448;45.532;5.290;2023-07-31T00:33:52;6.18;;;1.88;;
24325;SDS011;12448;45.532;5.290;2023-07-31T00:36:17;5.00;;;1.70;;
24325;SDS011;12448;45.532;5.290;2023-07-31T00:38:43;5.10;;;1.80;;
24325;SDS011;12448;45.532;5.290;2023-07-31T00:41:09;5.15;;;1.65;;
24325;SDS011;12448;45.532;5.290;2023-07-31T00:43:36;5.25;;;1.95;;
24325;SDS011;12448;45.532;5.290;2023-07-31T00:46:01;5.57;;;1.95;;
24325;SDS011;12448;45.532;5.290;2023-07-31T00:48:27;4.68;;;1.80;;
24325;SDS011;12448;45.532;5.290;2023-07-31T00:50:53;5.45;;;1.85;;
24325;SDS011;12448;45.532;5.290;2023-07-31T00:53:19;5.80;;;1.95;;
24325;SDS011;12448;45.532;5.290;2023-07-31T00:55:45;8.32;;;1.88;;
24325;SDS011;12448;45.532;5.290;2023-07-31T00:58:11;5.68;;;1.63;;
24325;SDS011;12448;45.532;5.290;2023-07-31T01:00:36;5.97;;;1.95;;
24325;SDS011;12448;45.532;5.290;2023-07-31T01:03:02;4.40;;;1.60;;
24325;SDS011;12448;45.532;5.290;2023-07-31T01:05:33;8.75;;;2.30;;
24325;SDS011;12448;45.532;5.290;2023-07-31T01:08:12;5.05;;;1.77;;
24325;SDS011;12448;45.532;5.290;2023-07-31T01:10:49;6.78;;;1.80;;
24325;SDS011;12448;45.532;5.290;2023-07-31T01:13:19;6.75;;;2.40;;
24325;SDS011;12448;45.532;5.290;2023-07-31T01:15:46;5.15;;;1.90;;
24325;SDS011;12448;45.532;5.290;2023-07-31T01:18:12;7.93;;;2.13;;
24325;SDS011;12448;45.532;5.290;2023-07-31T01:20:38;8.63;;;2.00;;
24325;SDS011;12448;45.532;5.290;2023-07-31T01:26:33;5.13;;;1.90;;
24325;SDS011;12448;45.532;5.290;2023-07-31T01:29:03;4.55;;;1.80;;
24325;SDS011;12448;45.532;5.290;2023-07-31T01:31:57;4.18;;;2.10;;
24325;SDS011;12448;45.532;5.290;2023-07-31T01:34:42;4.85;;;2.05;;
24325;SDS011;12448;45.532;5.290;2023-07-31T01:37:12;7.40;;;2.20;;
24325;SDS011;12448;45.532;5.290;2023-07-31T01:39:37;5.85;;;1.85;;
24325;SDS011;12448;45.532;5.290;2023-07-31T01:42:03;7.15;;;1.70;;
24325;SDS011;12448;45.532;5.290;2023-07-31T01:44:29;4.95;;;1.88;;
24325;SDS011;12448;45.532;5.290;2023-07-31T01:46:54;4.35;;;1.70;;
24325;SDS011;12448;45.532;5.290;2023-07-31T01:49:20;7.40;;;2.08;;
24325;SDS011;12448;45.532;5.290;2023-07-31T01:51:46;5.18;;;1.80;;
24325;SDS011;12448;45.532;5.290;2023-07-31T01:54:11;4.53;;;2.20;;
24325;SDS011;12448;45.532;5.290;2023-07-31T01:56:37;4.65;;;1.67;;
24325;SDS011;12448;45.532;5.290;2023-07-31T01:59:02;5.43;;;1.50;;
24325;SDS011;12448;45.532;5.290;2023-07-31T02:01:28;6.28;;;1.90;;
24325;SDS011;12448;45.532;5.290;2023-07-31T02:03:54;6.75;;;2.28;;
24325;SDS011;12448;45.532;5.290;2023-07-31T02:06:19;5.10;;;1.80;;
24325;SDS011;12448;45.532;5.290;2023-07-31T02:08:45;5.75;;;2.30;;
24325;SDS011;12448;45.532;5.290;2023-07-31T02:11:10;7.35;;;2.30;;
24325;SDS011;12448;45.532;5.290;2023-07-31T02:13:36;4.50;;;1.75;;
24325;SDS011;12448;45.532;5.290;2023-07-31T02:16:02;6.35;;;2.25;;
24325;SDS011;12448;45.532;5.290;2023-07-31T02:18:27;7.07;;;2.00;;
24325;SDS011;12448;45.532;5.290;2023-07-31T02:20:53;2.83;;;1.80;;
24325;SDS011;12448;45.532;5.290;2023-07-31T02:23:19;4.75;;;2.00;;
24325;SDS011;12448;45.532;5.290;2023-07-31T02:25:45;4.07;;;1.70;;
24325;SDS011;12448;45.532;5.290;2023-07-31T02:28:20;5.93;;;1.90;;
24325;SDS011;12448;45.532;5.290;2023-07-31T02:30:46;3.72;;;1.60;;
24325;SDS011;12448;45.532;5.290;2023-07-31T02:33:14;4.72;;;1.80;;
24325;SDS011;12448;45.532;5.290;2023-07-31T02:35:41;8.02;;;2.17;;
24325;SDS011;12448;45.532;5.290;2023-07-31T02:38:07;7.03;;;1.90;;
24325;SDS011;12448;45.532;5.290;2023-07-31T02:40:41;5.32;;;1.83;;
24325;SDS011;12448;45.532;5.290;2023-07-31T02:46:13;4.97;;;1.95;;
24325;SDS011;12448;45.532;5.290;2023-07-31T02:48:50;5.55;;;1.90;;
24325;SDS011;12448;45.532;5.290;2023-07-31T02:51:28;4.35;;;1.70;;
24325;SDS011;12448;45.532;5.290;2023-07-31T02:53:53;6.63;;;1.85;;
24325;SDS011;12448;45.532;5.290;2023-07-31T02:56:19;8.77;;;2.28;;
24325;SDS011;12448;45.532;5.290;2023-07-31T02:58:53;7.03;;;2.50;;
24325;SDS011;12448;45.532;5.290;2023-07-31T03:01:30;7.93;;;2.10;;
24325;SDS011;12448;45.532;5.290;2023-07-31T03:04:30;5.38;;;1.92;;
24325;SDS011;12448;45.532;5.290;2023-07-31T03:08:02;7.68;;;2.13;;
24325;SDS011;12448;45.532;5.290;2023-07-31T03:09:57;5.22;;;1.98;;
24325;SDS011;12448;45.532;5.290;2023-07-31T03:12:27;5.40;;;2.20;;
24325;SDS011;12448;45.532;5.290;2023-07-31T03:14:53;5.20;;;1.83;;
24325;SDS011;12448;45.532;5.290;2023-07-31T03:17:31;5.15;;;2.10;;
24325;SDS011;12448;45.532;5.290;2023-07-31T03:20:11;7.35;;;2.20;;
24325;SDS011;12448;45.532;5.290;2023-07-31T03:23:09;6.43;;;1.92;;
24325;SDS011;12448;45.532;5.290;2023-07-31T03:25:38;4.43;;;1.60;;
24325;SDS011;12448;45.532;5.290;2023-07-31T03:28:27;4.05;;;1.60;;
24325;SDS011;12448;45.532;5.290;2023-07-31T03:30:56;7.28;;;1.95;;
24325;SDS011;12448;45.532;5.290;2023-07-31T03:33:22;5.97;;;2.08;;
24325;SDS011;12448;45.532;5.290;2023-07-31T03:35:54;6.90;;;2.08;;
24325;SDS011;12448;45.532;5.290;2023-07-31T03:38:28;4.18;;;1.77;;
24325;SDS011;12448;45.532;5.290;2023-07-31T03:41:03;7.60;;;2.15;;
24325;SDS011;12448;45.532;5.290;2023-07-31T03:43:35;3.45;;;1.65;;
24325;SDS011;12448;45.532;5.290;2023-07-31T03:46:11;6.18;;;1.67;;
24325;SDS011;12448;45.532;5.290;2023-07-31T03:48:37;6.07;;;2.35;;
24325;SDS011;12448;45.532;5.290;2023-07-31T03:51:02;3.38;;;1.75;;
24325;SDS011;12448;45.532;5.290;2023-07-31T03:53:31;7.65;;;1.70;;
24325;SDS011;12448;45.532;5.290;2023-07-31T03:56:03;7.60;;;2.03;;
24325;SDS011;12448;45.532;5.290;2023-07-31T03:58:34;3.93;;;1.57;;
24325;SDS011;12448;45.532;5.290;2023-07-31T04:01:01;7.10;;;1.95;;
24325;SDS011;12448;45.532;5.290;2023-07-31T04:03:28;4.88;;;1.73;;
24325;SDS011;12448;45.532;5.290;2023-07-31T04:05:54;8.35;;;2.03;;
24325;SDS011;12448;45.532;5.290;2023-07-31T04:08:30;4.93;;;1.90;;
24325;SDS011;12448;45.532;5.290;2023-07-31T04:10:55;5.20;;;1.77;;
24325;SDS011;12448;45.532;5.290;2023-07-31T04:13:21;6.03;;;2.25;;
24325;SDS011;12448;45.532;5.290;2023-07-31T04:15:48;5.82;;;2.00;;
24325;SDS011;12448;45.532;5.290;2023-07-31T04:18:15;4.22;;;2.42;;
24325;SDS011;12448;45.532;5.290;2023-07-31T04:20:41;6.43;;;2.40;;
24325;SDS011;12448;45.532;5.290;2023-07-31T04:23:19;8.57;;;2.65;;
24325;SDS011;12448;45.532;5.290;2023-07-31T04:25:57;5.57;;;2.40;;
24325;SDS011;12448;45.532;5.290;2023-07-31T04:28:22;4.57;;;2.30;;
24325;SDS011;12448;45.532;5.290;2023-07-31T04:31:10;5.75;;;2.67;;
24325;SDS011;12448;45.532;5.290;2023-07-31T04:33:54;4.40;;;1.95;;
24325;SDS011;12448;45.532;5.290;2023-07-31T04:36:39;7.00;;;2.28;;
24325;SDS011;12448;45.532;5.290;2023-07-31T04:39:04;6.65;;;2.28;;
24325;SDS011;12448;45.532;5.290;2023-07-31T04:41:30;7.63;;;2.38;;
24325;SDS011;12448;45.532;5.290;2023-07-31T04:43:59;7.40;;;1.95;;
24325;SDS011;12448;45.532;5.290;2023-07-31T04:47:13;7.47;;;2.42;;
24325;SDS011;12448;45.532;5.290;2023-07-31T04:49:47;5.88;;;2.25;;
24325;SDS011;12448;45.532;5.290;2023-07-31T04:52:42;8.52;;;2.65;;
24325;SDS011;12448;45.532;5.290;2023-07-31T04:55:24;5.68;;;2.80;;
24325;SDS011;12448;45.532;5.290;2023-07-31T04:58:01;7.03;;;1.95;;
24325;SDS011;12448;45.532;5.290;2023-07-31T05:00:30;7.82;;;2.20;;
24325;SDS011;12448;45.532;5.290;2023-07-31T05:03:05;7.23;;;2.20;;
24325;SDS011;12448;45.532;5.290;2023-07-31T05:06:04;6.20;;;2.40;;
24325;SDS011;12448;45.532;5.290;2023-07-31T05:08:35;6.85;;;2.45;;
24325;SDS011;12448;45.532;5.290;2023-07-31T05:11:01;8.30;;;2.13;;
24325;SDS011;12448;45.532;5.290;2023-07-31T05:13:28;8.98;;;2.60;;
24325;SDS011;12448;45.532;5.290;2023-07-31T05:15:54;5.15;;;1.98;;
24325;SDS011;12448;45.532;5.290;2023-07-31T05:18:19;8.75;;;2.33;;
24325;SDS011;12448;45.532;5.290;2023-07-31T05:20:48;6.35;;;2.65;;
24325;SDS011;12448;45.532;5.290;2023-07-31T05:23:14;7.57;;;2.25;;
24325;SDS011;12448;45.532;5.290;2023-07-31T05:25:42;7.07;;;2.20;;
24325;SDS011;12448;45.532;5.290;2023-07-31T05:28:08;3.63;;;1.80;;
24325;SDS011;12448;45.532;5.290;2023-07-31T05:30:34;9.40;;;2.55;;
24325;SDS011;12448;45.532;5.290;2023-07-31T05:32:59;5.53;;;2.00;;
24325;SDS011;12448;45.532;5.290;2023-07-31T05:35:25;6.28;;;2.28;;
24325;SDS011;12448;45.532;5.290;2023-07-31T05:37:53;8.27;;;2.00;;
24325;SDS011;12448;45.532;5.290;2023-07-31T05:40:19;5.40;;;2.30;;
24325;SDS011;12448;45.532;5.290;2023-07-31T05:43:03;6.18;;;2.55;;
24325;SDS011;12448;45.532;5.290;2023-07-31T05:45:31;9.57;;;2.83;;
24325;SDS011;12448;45.532;5.290;2023-07-31T05:48:52;7.75;;;2.33;;
24325;SDS011;12448;45.532;5.290;2023-07-31T05:51:30;6.15;;;2.90;;
24325;SDS011;12448;45.532;5.290;2023-07-31T05:54:19;7.55;;;2.53;;
24325;SDS011;12448;45.532;5.290;2023-07-31T05:57:06;8.50;;;2.78;;
24325;SDS011;12448;45.532;5.290;2023-07-31T05:59:31;7.55;;;2.67;;
24325;SDS011;12448;45.532;5.290;2023-07-31T06:01:58;5.70;;;2.67;;
24325;SDS011;12448;45.532;5.290;2023-07-31T06:04:24;9.63;;;2.80;;
24325;SDS011;12448;45.532;5.290;2023-07-31T06:06:50;9.45;;;2.50;;
24325;SDS011;12448;45.532;5.290;2023-07-31T06:09:16;8.02;;;2.63;;
24325;SDS011;12448;45.532;5.290;2023-07-31T06:11:42;6.10;;;2.58;;
24325;SDS011;12448;45.532;5.290;2023-07-31T06:14:07;6.22;;;2.50;;
24325;SDS011;12448;45.532;5.290;2023-07-31T06:16:33;7.30;;;2.42;;
24325;SDS011;12448;45.532;5.290;2023-07-31T06:19:04;8.45;;;2.20;;
24325;SDS011;12448;45.532;5.290;2023-07-31T06:21:53;7.95;;;2.60;;
24325;SDS011;12448;45.532;5.290;2023-07-31T06:27:10;7.47;;;2.40;;
24325;SDS011;12448;45.532;5.290;2023-07-31T06:29:44;7.05;;;2.20;;
24325;SDS011;12448;45.532;5.290;2023-07-31T06:32:43;9.37;;;2.93;;
24325;SDS011;12448;45.532;5.290;2023-07-31T06:35:39;5.43;;;2.35;;
24325;SDS011;12448;45.532;5.290;2023-07-31T06:38:33;6.35;;;2.33;;
24325;SDS011;12448;45.532;5.290;2023-07-31T06:40:58;8.57;;;2.15;;
24325;SDS011;12448;45.532;5.290;2023-07-31T06:43:24;7.78;;;2.30;;
24325;SDS011;12448;45.532;5.290;2023-07-31T06:45:50;5.47;;;2.10;;
24325;SDS011;12448;45.532;5.290;2023-07-31T06:48:16;10.57;;;2.33;;
24325;SDS011;12448;45.532;5.290;2023-07-31T06:51:15;8.73;;;1.77;;
24325;SDS011;12448;45.532;5.290;2023-07-31T06:53:41;8.85;;;2.35;;
24325;SDS011;12448;45.532;5.290;2023-07-31T06:56:10;5.85;;;2.10;;
24325;SDS011;12448;45.532;5.290;2023-07-31T06:58:35;4.70;;;2.20;;
24325;SDS011;12448;45.532;5.290;2023-07-31T07:01:01;6.25;;;2.47;;
24325;SDS011;12448;45.532;5.290;2023-07-31T07:03:33;6.43;;;2.40;;
24325;SDS011;12448;45.532;5.290;2023-07-31T07:06:16;7.32;;;2.45;;
24325;SDS011;12448;45.532;5.290;2023-07-31T07:08:48;7.05;;;2.08;;
24325;SDS011;12448;45.532;5.290;2023-07-31T07:11:14;4.88;;;1.90;;
24325;SDS011;12448;45.532;5.290;2023-07-31T07:13:40;8.52;;;2.53;;
24325;SDS011;12448;45.532;5.290;2023-07-31T07:16:22;7.00;;;2.47;;
24325;SDS011;12448;45.532;5.290;2023-07-31T07:25:54;5.80;;;2.25;;
24325;SDS011;12448;45.532;5.290;2023-07-31T07:28:20;7.32;;;2.03;;
24325;SDS011;12448;45.532;5.290;2023-07-31T07:30:50;4.93;;;2.15;;
24325;SDS011;12448;45.532;5.290;2023-07-31T07:33:17;7.00;;;2.45;;
24325;SDS011;12448;45.532;5.290;2023-07-31T07:35:43;5.53;;;1.80;;
24325;SDS011;12448;45.532;5.290;2023-07-31T07:38:09;5.88;;;2.20;;
24325;SDS011;12448;45.532;5.290;2023-07-31T07:40:41;4.78;;;1.73;;
24325;SDS011;12448;45.532;5.290;2023-07-31T07:43:07;5.50;;;2.17;;
24325;SDS011;12448;45.532;5.290;2023-07-31T07:45:33;5.18;;;2.33;;
24325;SDS011;12448;45.532;5.290;2023-07-31T07:47:58;4.65;;;1.73;;
24325;SDS011;12448;45.532;5.290;2023-07-31T07:50:24;6.03;;;2.03;;
24325;SDS011;12448;45.532;5.290;2023-07-31T07:52:50;6.43;;;2.22;;
24325;SDS011;12448;45.532;5.290;2023-07-31T07:55:58;3.72;;;1.75;;
24325;SDS011;12448;45.532;5.290;2023-07-31T07:58:26;8.02;;;2.20;;
24325;SDS011;12448;45.532;5.290;2023-07-31T08:00:58;6.53;;;1.98;;
24325;SDS011;12448;45.532;5.290;2023-07-31T08:03:23;7.95;;;2.30;;
24325;SDS011;12448;45.532;5.290;2023-07-31T08:05:49;5.70;;;1.95;;
24325;SDS011;12448;45.532;5.290;2023-07-31T08:08:15;6.57;;;1.92;;
24325;SDS011;12448;45.532;5.290;2023-07-31T08:10:44;4.38;;;1.80;;
24325;SDS011;12448;45.532;5.290;2023-07-31T08:13:11;5.47;;;1.90;;
24325;SDS011;12448;45.532;5.290;2023-07-31T08:15:37;4.57;;;1.77;;
24325;SDS011;12448;45.532;5.290;2023-07-31T08:18:02;2.80;;;1.70;;
24325;SDS011;12448;45.532;5.290;2023-07-31T08:20:28;6.78;;;1.80;;
24325;SDS011;12448;45.532;5.290;2023-07-31T08:22:53;4.85;;;1.65;;
24325;SDS011;12448;45.532;5.290;2023-07-31T08:25:19;6.82;;;1.95;;
24325;SDS011;12448;45.532;5.290;2023-07-31T08:27:45;4.30;;;1.90;;
24325;SDS011;12448;45.532;5.290;2023-07-31T08:30:11;4.80;;;1.77;;
24325;SDS011;12448;45.532;5.290;2023-07-31T08:32:37;7.47;;;2.00;;
24325;SDS011;12448;45.532;5.290;2023-07-31T08:35:03;10.23;;;1.90;;
24325;SDS011;12448;45.532;5.290;2023-07-31T08:37:29;8.65;;;2.03;;
24325;SDS011;12448;45.532;5.290;2023-07-31T08:39:55;5.28;;;2.15;;
24325;SDS011;12448;45.532;5.290;2023-07-31T08:42:20;7.50;;;1.77;;
24325;SDS011;12448;45.532;5.290;2023-07-31T08:44:46;7.70;;;1.70;;
24325;SDS011;12448;45.532;5.290;2023-07-31T08:47:12;8.25;;;2.00;;
24325;SDS011;12448;45.532;5.290;2023-07-31T08:49:38;6.55;;;2.13;;
24325;SDS011;12448;45.532;5.290;2023-07-31T08:52:06;7.82;;;1.80;;
24325;SDS011;12448;45.532;5.290;2023-07-31T08:54:31;4.90;;;2.22;;
24325;SDS011;12448;45.532;5.290;2023-07-31T08:56:58;6.72;;;2.05;;
24325;SDS011;12448;45.532;5.290;2023-07-31T08:59:26;9.82;;;2.13;;
24325;SDS011;12448;45.532;5.290;2023-07-31T09:01:55;5.07;;;2.10;;
24325;SDS011;12448;45.532;5.290;2023-07-31T09:04:25;6.18;;;2.00;;
24325;SDS011;12448;45.532;5.290;2023-07-31T09:06:52;9.50;;;2.22;;
24325;SDS011;12448;45.532;5.290;2023-07-31T09:11:50;7.85;;;1.90;;
24325;SDS011;12448;45.532;5.290;2023-07-31T09:14:16;8.73;;;2.22;;
24325;SDS011;12448;45.532;5.290;2023-07-31T09:16:55;9.50;;;2.22;;
24325;SDS011;12448;45.532;5.290;2023-07-31T09:19:40;14.45;;;2.00;;
24325;SDS011;12448;45.532;5.290;2023-07-31T09:22:07;9.32;;;2.60;;
24325;SDS011;12448;45.532;5.290;2023-07-31T09:24:33;6.40;;;2.20;;
24325;SDS011;12448;45.532;5.290;2023-07-31T09:27:00;6.22;;;1.90;;
24325;SDS011;12448;45.532;5.290;2023-07-31T09:29:27;7.20;;;2.03;;
24325;SDS011;12448;45.532;5.290;2023-07-31T09:31:54;4.28;;;1.67;;
24325;SDS011;12448;45.532;5.290;2023-07-31T09:34:21;7.07;;;2.10;;
24325;SDS011;12448;45.532;5.290;2023-07-31T09:37:02;6.72;;;2.13;;
24325;SDS011;12448;45.532;5.290;2023-07-31T09:39:29;10.43;;;2.88;;
24325;SDS011;12448;45.532;5.290;2023-07-31T09:41:55;7.22;;;2.35;;
24325;SDS011;12448;45.532;5.290;2023-07-31T09:44:22;5.80;;;2.30;;
24325;SDS011;12448;45.532;5.290;2023-07-31T09:47:03;7.30;;;2.07;;
24325;SDS011;12448;45.532;5.290;2023-07-31T09:49:29;9.10;;;2.40;;
24325;SDS011;12448;45.532;5.290;2023-07-31T09:51:55;5.43;;;2.13;;
24325;SDS011;12448;45.532;5.290;2023-07-31T09:54:20;3.65;;;2.08;;
24325;SDS011;12448;45.532;5.290;2023-07-31T09:56:47;5.95;;;2.25;;
24325;SDS011;12448;45.532;5.290;2023-07-31T09:59:17;11.10;;;2.28;;
24325;SDS011;12448;45.532;5.290;2023-07-31T10:01:45;6.55;;;2.20;;
24325;SDS011;12448;45.532;5.290;2023-07-31T10:04:11;5.72;;;2.05;;
24325;SDS011;12448;45.532;5.290;2023-07-31T10:06:38;7.15;;;2.28;;
24325;SDS011;12448;45.532;5.290;2023-07-31T10:09:05;6.00;;;2.88;;
24325;SDS011;12448;45.532;5.290;2023-07-31T10:11:38;7.55;;;2.13;;
24325;SDS011;12448;45.532;5.290;2023-07-31T10:14:09;4.60;;;1.85;;
24325;SDS011;12448;45.532;5.290;2023-07-31T10:16:37;3.88;;;1.88;;
24325;SDS011;12448;45.532;5.290;2023-07-31T10:19:04;6.68;;;2.30;;
24325;SDS011;12448;45.532;5.290;2023-07-31T10:21:31;6.30;;;2.47;;
24325;SDS011;12448;45.532;5.290;2023-07-31T10:24:02;4.30;;;2.30;;
24325;SDS011;12448;45.532;5.290;2023-07-31T10:26:29;6.65;;;2.55;;
24325;SDS011;12448;45.532;5.290;2023-07-31T10:28:57;8.05;;;2.80;;
24325;SDS011;12448;45.532;5.290;2023-07-31T10:31:23;6.45;;;2.30;;
24325;SDS011;12448;45.532;5.290;2023-07-31T10:33:50;8.95;;;2.90;;
24325;SDS011;12448;45.532;5.290;2023-07-31T10:36:18;6.93;;;1.95;;
24325;SDS011;12448;45.532;5.290;2023-07-31T10:38:45;4.72;;;2.33;;
24325;SDS011;12448;45.532;5.290;2023-07-31T10:41:13;9.00;;;2.65;;
24325;SDS011;12448;45.532;5.290;2023-07-31T10:43:39;5.43;;;2.38;;
24325;SDS011;12448;45.532;5.290;2023-07-31T10:46:08;6.88;;;1.90;;
24325;SDS011;12448;45.532;5.290;2023-07-31T10:48:36;5.30;;;2.35;;
24325;SDS011;12448;45.532;5.290;2023-07-31T10:51:06;6.72;;;2.08;;
24325;SDS011;12448;45.532;5.290;2023-07-31T10:53:33;9.40;;;2.17;;
24325;SDS011;12448;45.532;5.290;2023-07-31T10:56:03;5.82;;;2.25;;
24325;SDS011;12448;45.532;5.290;2023-07-31T10:58:30;5.43;;;2.08;;
24325;SDS011;12448;45.532;5.290;2023-07-31T11:01:00;5.57;;;2.22;;
24325;SDS011;12448;45.532;5.290;2023-07-31T11:03:49;3.75;;;1.80;;
24325;SDS011;12448;45.532;5.290;2023-07-31T11:06:18;4.97;;;2.00;;
24325;SDS011;12448;45.532;5.290;2023-07-31T11:08:47;5.88;;;2.20;;
24325;SDS011;12448;45.532;5.290;2023-07-31T11:11:18;4.43;;;2.15;;
24325;SDS011;12448;45.532;5.290;2023-07-31T11:13:46;5.93;;;1.95;;
24325;SDS011;12448;45.532;5.290;2023-07-31T11:16:17;5.38;;;1.90;;
24325;SDS011;12448;45.532;5.290;2023-07-31T11:18:45;5.13;;;2.15;;
24325;SDS011;12448;45.532;5.290;2023-07-31T11:21:15;7.10;;;2.20;;
24325;SDS011;12448;45.532;5.290;2023-07-31T11:23:46;4.70;;;1.95;;
24325;SDS011;12448;45.532;5.290;2023-07-31T11:26:12;6.18;;;1.80;;
24325;SDS011;12448;45.532;5.290;2023-07-31T11:28:39;6.70;;;2.28;;
24325;SDS011;12448;45.532;5.290;2023-07-31T11:31:08;7.53;;;2.20;;
24325;SDS011;12448;45.532;5.290;2023-07-31T11:33:34;7.90;;;2.28;;
24325;SDS011;12448;45.532;5.290;2023-07-31T11:36:00;6.28;;;2.28;;
24325;SDS011;12448;45.532;5.290;2023-07-31T11:38:29;5.65;;;1.63;;
24325;SDS011;12448;45.532;5.290;2023-07-31T11:40:57;7.45;;;1.92;;
24325;SDS011;12448;45.532;5.290;2023-07-31T11:43:24;7.72;;;1.90;;
24325;SDS011;12448;45.532;5.290;2023-07-31T11:45:59;5.78;;;2.10;;
24325;SDS011;12448;45.532;5.290;2023-07-31T11:48:32;3.05;;;1.80;;
24325;SDS011;12448;45.532;5.290;2023-07-31T11:51:01;6.07;;;2.13;;
24325;SDS011;12448;45.532;5.290;2023-07-31T11:53:42;4.63;;;1.90;;
24325;SDS011;12448;45.532;5.290;2023-07-31T11:56:10;4.15;;;1.90;;
24325;SDS011;12448;45.532;5.290;2023-07-31T11:58:38;7.65;;;2.45;;
24325;SDS011;12448;45.532;5.290;2023-07-31T12:01:05;4.80;;;2.10;;
24325;SDS011;12448;45.532;5.290;2023-07-31T12:03:31;3.72;;;2.08;;
24325;SDS011;12448;45.532;5.290;2023-07-31T12:05:58;6.55;;;2.30;;
24325;SDS011;12448;45.532;5.290;2023-07-31T12:08:24;7.05;;;2.30;;
24325;SDS011;12448;45.532;5.290;2023-07-31T12:10:50;5.20;;;2.30;;
24325;SDS011;12448;45.532;5.290;2023-07-31T12:13:20;7.80;;;2.50;;
24325;SDS011;12448;45.532;5.290;2023-07-31T12:15:47;5.78;;;2.17;;
24325;SDS011;12448;45.532;5.290;2023-07-31T12:18:14;7.97;;;2.65;;
24325;SDS011;12448;45.532;5.290;2023-07-31T12:20:41;8.30;;;2.42;;
24325;SDS011;12448;45.532;5.290;2023-07-31T12:23:14;8.35;;;2.72;;
24325;SDS011;12448;45.532;5.290;2023-07-31T12:26:09;7.15;;;2.40;;
24325;SDS011;12448;45.532;5.290;2023-07-31T12:28:37;6.57;;;2.50;;
24325;SDS011;12448;45.532;5.290;2023-07-31T12:31:03;8.23;;;2.30;;
24325;SDS011;12448;45.532;5.290;2023-07-31T12:33:30;4.97;;;2.40;;
24325;SDS011;12448;45.532;5.290;2023-07-31T12:35:57;7.40;;;2.22;;
24325;SDS011;12448;45.532;5.290;2023-07-31T12:38:25;4.75;;;2.10;;
24325;SDS011;12448;45.532;5.290;2023-07-31T12:40:51;8.98;;;2.83;;
24325;SDS011;12448;45.532;5.290;2023-07-31T12:43:16;6.30;;;2.72;;
24325;SDS011;12448;45.532;5.290;2023-07-31T12:45:42;6.85;;;2.20;;
24325;SDS011;12448;45.532;5.290;2023-07-31T12:48:08;5.63;;;2.70;;
24325;SDS011;12448;45.532;5.290;2023-07-31T12:50:33;5.38;;;2.40;;
24325;SDS011;12448;45.532;5.290;2023-07-31T12:53:01;6.95;;;2.22;;
24325;SDS011;12448;45.532;5.290;2023-07-31T12:55:28;6.22;;;2.45;;
24325;SDS011;12448;45.532;5.290;2023-07-31T12:57:55;7.95;;;2.55;;
24325;SDS011;12448;45.532;5.290;2023-07-31T13:00:21;7.13;;;2.55;;
24325;SDS011;12448;45.532;5.290;2023-07-31T13:02:47;6.82;;;2.53;;
24325;SDS011;12448;45.532;5.290;2023-07-31T13:05:13;4.38;;;2.35;;
24325;SDS011;12448;45.532;5.290;2023-07-31T13:07:39;5.28;;;2.53;;
24325;SDS011;12448;45.532;5.290;2023-07-31T13:10:05;6.22;;;2.58;;
24325;SDS011;12448;45.532;5.290;2023-07-31T13:12:32;5.72;;;2.50;;
24325;SDS011;12448;45.532;5.290;2023-07-31T13:14:57;5.80;;;2.58;;
24325;SDS011;12448;45.532;5.290;2023-07-31T13:17:23;7.80;;;2.72;;
24325;SDS011;12448;45.532;5.290;2023-07-31T13:19:48;6.72;;;3.17;;
24325;SDS011;12448;45.532;5.290;2023-07-31T13:22:14;6.43;;;2.72;;
24325;SDS011;12448;45.532;5.290;2023-07-31T13:24:39;5.30;;;2.88;;
24325;SDS011;12448;45.532;5.290;2023-07-31T13:27:05;8.30;;;2.97;;
24325;SDS011;12448;45.532;5.290;2023-07-31T13:29:31;6.70;;;2.88;;
24325;SDS011;12448;45.532;5.290;2023-07-31T13:31:57;5.55;;;3.13;;
24325;SDS011;12448;45.532;5.290;2023-07-31T13:34:22;6.93;;;2.75;;
24325;SDS011;12448;45.532;5.290;2023-07-31T13:36:48;4.78;;;2.33;;
24325;SDS011;12448;45.532;5.290;2023-07-31T13:39:14;6.38;;;2.97;;
24325;SDS011;12448;45.532;5.290;2023-07-31T13:41:39;6.15;;;3.05;;
24325;SDS011;12448;45.532;5.290;2023-07-31T13:44:05;6.50;;;3.03;;
24325;SDS011;12448;45.532;5.290;2023-07-31T13:46:31;4.85;;;2.40;;
24325;SDS011;12448;45.532;5.290;2023-07-31T13:48:57;6.07;;;2.88;;
24325;SDS011;12448;45.532;5.290;2023-07-31T13:51:24;7.25;;;3.00;;
24325;SDS011;12448;45.532;5.290;2023-07-31T13:53:50;3.78;;;2.28;;
24325;SDS011;12448;45.532;5.290;2023-07-31T13:56:15;4.63;;;2.45;;
24325;SDS011;12448;45.532;5.290;2023-07-31T13:58:41;4.90;;;2.78;;
24325;SDS011;12448;45.532;5.290;2023-07-31T14:01:07;6.03;;;3.08;;
24325;SDS011;12448;45.532;5.290;2023-07-31T14:03:32;4.50;;;2.70;;
24325;SDS011;12448;45.532;5.290;2023-07-31T14:05:58;6.88;;;3.05;;
24325;SDS011;12448;45.532;5.290;2023-07-31T14:08:24;6.47;;;3.10;;
24325;SDS011;12448;45.532;5.290;2023-07-31T14:10:49;4.53;;;2.72;;
24325;SDS011;12448;45.532;5.290;2023-07-31T14:13:15;5.53;;;3.22;;
24325;SDS011;12448;45.532;5.290;2023-07-31T14:15:41;3.90;;;2.50;;
24325;SDS011;12448;45.532;5.290;2023-07-31T14:18:08;6.43;;;2.72;;
24325;SDS011;12448;45.532;5.290;2023-07-31T14:20:33;10.65;;;2.70;;
24325;SDS011;12448;45.532;5.290;2023-07-31T14:22:59;5.28;;;2.90;;
24325;SDS011;12448;45.532;5.290;2023-07-31T14:25:25;5.95;;;2.90;;
24325;SDS011;12448;45.532;5.290;2023-07-31T14:27:51;4.80;;;2.97;;
24325;SDS011;12448;45.532;5.290;2023-07-31T14:30:16;7.97;;;2.88;;
24325;SDS011;12448;45.532;5.290;2023-07-31T14:32:43;6.43;;;2.70;;
24325;SDS011;12448;45.532;5.290;2023-07-31T14:35:09;7.00;;;2.83;;
24325;SDS011;12448;45.532;5.290;2023-07-31T14:37:38;8.35;;;2.95;;
24325;SDS011;12448;45.532;5.290;2023-07-31T14:40:08;4.50;;;2.72;;
24325;SDS011;12448;45.532;5.290;2023-07-31T14:42:36;6.30;;;3.15;;
24325;SDS011;12448;45.532;5.290;2023-07-31T14:45:06;5.72;;;3.10;;
24325;SDS011;12448;45.532;5.290;2023-07-31T14:47:32;6.97;;;3.15;;
24325;SDS011;12448;45.532;5.290;2023-07-31T14:49:58;6.07;;;3.28;;
24325;SDS011;12448;45.532;5.290;2023-07-31T14:52:25;5.10;;;3.13;;
24325;SDS011;12448;45.532;5.290;2023-07-31T14:54:51;4.70;;;2.95;;
24325;SDS011;12448;45.532;5.290;2023-07-31T14:57:17;6.35;;;2.67;;
24325;SDS011;12448;45.532;5.290;2023-07-31T14:59:43;11.32;;;3.30;;
24325;SDS011;12448;45.532;5.290;2023-07-31T15:02:10;5.07;;;3.08;;
24325;SDS011;12448;45.532;5.290;2023-07-31T15:04:36;5.68;;;3.00;;
24325;SDS011;12448;45.532;5.290;2023-07-31T15:07:02;7.15;;;3.00;;
24325;SDS011;12448;45.532;5.290;2023-07-31T15:09:28;4.15;;;2.88;;
24325;SDS011;12448;45.532;5.290;2023-07-31T15:11:53;5.30;;;2.80;;
24325;SDS011;12448;45.532;5.290;2023-07-31T15:14:20;4.97;;;3.00;;
24325;SDS011;12448;45.532;5.290;2023-07-31T15:16:46;3.38;;;2.55;;
24325;SDS011;12448;45.532;5.290;2023-07-31T15:19:11;4.57;;;2.70;;
24325;SDS011;12448;45.532;5.290;2023-07-31T15:21:37;4.18;;;2.90;;